Time;durP1;ratioP1;P1;durP2;ratioP2;P2;SDS_P1;SDS_P2;PMS_P1;PMS_P2;Temp;Humidity;BMP_temperature;BMP_pressure;BME280_temperature;BME280_humidity;BME280_pressure;Samples;Min_cycle;Max_cycle;Signal;HPM_P1;HPM_P2
2023/12/16 00:00:34;;;;;;;6.05;5.45;;;;;;;;;;2071658;28;20033;-77
2023/12/16 00:01:53;;;;;;;7.85;5.50;;;;;;;;;;2077106;28;20029;-75
2023/12/16 00:03:12;;;;;;;7.60;5.35;;;;;;;;;;2074790;28;20029;-75
2023/12/16 00:04:32;;;;;;;6.07;5.45;;;;;;;;;;2078509;28;20029;-75
2023/12/16 00:05:52;;;;;;;9.98;5.63;;;;;;;;;;2076535;28;20025;-75
2023/12/16 00:07:11;;;;;;;6.60;5.95;;;;;;;;;;2071925;28;20073;-74
2023/12/16 00:08:30;;;;;;;8.25;6.28;;;;;;;;;;2077169;28;20021;-76
2023/12/16 00:09:49;;;;;;;6.22;5.55;;;;;;;;;;2080505;28;20033;-74
2023/12/16 00:11:08;;;;;;;6.38;5.65;;;;;;;;;;2080391;28;20061;-74
2023/12/16 00:12:27;;;;;;;8.18;5.47;;;;;;;;;;2075329;28;20467;-75
2023/12/16 00:13:46;;;;;;;6.30;5.28;;;;;;;;;;2078387;28;20029;-74
2023/12/16 00:15:05;;;;;;;5.95;5.35;;;;;;;;;;2081161;28;20025;-74
2023/12/16 00:16:25;;;;;;;5.45;4.95;;;;;;;;;;2080143;28;20060;-75
2023/12/16 00:17:44;;;;;;;6.35;5.65;;;;;;;;;;2081025;28;20344;-75
2023/12/16 00:19:03;;;;;;;5.88;5.25;;;;;;;;;;2081149;28;20037;-75
2023/12/16 00:20:23;;;;;;;5.85;5.10;;;;;;;;;;2082004;28;20022;-74
2023/12/16 00:21:42;;;;;;;5.32;4.82;;;;;;;;;;2080370;28;20030;-75
2023/12/16 00:23:01;;;;;;;6.95;6.07;;;;;;;;;;2074423;28;20105;-75
2023/12/16 00:24:20;;;;;;;5.90;5.22;;;;;;;;;;2073651;28;20525;-74
2023/12/16 00:25:39;;;;;;;5.22;4.82;;;;;;;;;;2074879;28;20041;-74
2023/12/16 00:26:57;;;;;;;9.13;5.47;;;;;;;;;;2075680;28;20037;-75
2023/12/16 00:28:17;;;;;;;8.05;5.25;;;;;;;;;;2074316;28;20030;-74
2023/12/16 00:29:35;;;;;;;6.63;5.13;;;;;;;;;;2079072;28;20045;-75
2023/12/16 00:30:54;;;;;;;7.72;5.85;;;;;;;;;;2081517;28;20107;-76
2023/12/16 00:32:13;;;;;;;5.47;4.97;;;;;;;;;;2079400;28;20021;-74
2023/12/16 00:33:32;;;;;;;5.60;5.10;;;;;;;;;;2081092;28;20052;-75
2023/12/16 00:34:51;;;;;;;6.15;4.88;;;;;;;;;;2074643;28;20030;-74
2023/12/16 00:36:10;;;;;;;5.82;5.03;;;;;;;;;;2078974;28;20017;-75
2023/12/16 00:37:29;;;;;;;7.20;5.15;;;;;;;;;;2079841;28;20021;-75
2023/12/16 00:38:51;;;;;;;6.07;5.20;;;;;;;;;;2081549;28;20029;-74
2023/12/16 00:40:10;;;;;;;5.45;5.03;;;;;;;;;;2081115;28;20061;-75
2023/12/16 00:41:29;;;;;;;6.28;4.85;;;;;;;;;;2082144;28;20026;-75
2023/12/16 00:42:48;;;;;;;6.57;5.15;;;;;;;;;;2081109;28;20414;-74
2023/12/16 00:44:07;;;;;;;6.78;4.60;;;;;;;;;;2081511;28;20026;-75
2023/12/16 00:45:26;;;;;;;4.93;4.50;;;;;;;;;;2076718;28;20038;-75
2023/12/16 00:46:45;;;;;;;5.05;4.65;;;;;;;;;;2083501;28;20116;-78
2023/12/16 00:48:04;;;;;;;4.80;4.40;;;;;;;;;;2089991;28;21125;-75
2023/12/16 00:49:23;;;;;;;5.80;4.38;;;;;;;;;;2083393;28;20034;-76
2023/12/16 00:50:42;;;;;;;5.13;4.55;;;;;;;;;;2087308;28;20034;-76
2023/12/16 00:52:03;;;;;;;4.88;4.47;;;;;;;;;;2083220;28;20089;-75
2023/12/16 00:53:22;;;;;;;4.88;4.47;;;;;;;;;;2081201;28;20064;-76
2023/12/16 00:54:41;;;;;;;4.75;4.25;;;;;;;;;;2083227;28;20033;-75
2023/12/16 00:56:00;;;;;;;5.28;4.47;;;;;;;;;;2081888;28;20495;-75
2023/12/16 00:57:19;;;;;;;5.13;4.63;;;;;;;;;;2077414;28;20034;-75
2023/12/16 00:58:38;;;;;;;5.38;4.75;;;;;;;;;;2073798;28;20014;-77
2023/12/16 00:59:58;;;;;;;5.70;5.20;;;;;;;;;;2077266;28;20034;-75
2023/12/16 01:01:16;;;;;;;4.72;4.32;;;;;;;;;;2088586;28;20034;-75
2023/12/16 01:02:36;;;;;;;6.15;4.80;;;;;;;;;;2087596;28;20026;-76
2023/12/16 01:03:55;;;;;;;5.47;4.82;;;;;;;;;;2076957;28;20034;-74
2023/12/16 01:05:15;;;;;;;4.97;4.53;;;;;;;;;;2083556;28;20089;-73
2023/12/16 01:06:34;;;;;;;7.93;4.38;;;;;;;;;;2082563;28;20068;-74
2023/12/16 01:07:53;;;;;;;7.05;3.90;;;;;;;;;;2077443;28;20025;-74
2023/12/16 01:09:11;;;;;;;7.38;4.72;;;;;;;;;;2073261;28;20153;-74
2023/12/16 01:10:31;;;;;;;4.95;4.38;;;;;;;;;;2075329;28;20029;-75
2023/12/16 01:11:50;;;;;;;4.22;3.83;;;;;;;;;;2079363;28;20026;-74
2023/12/16 01:13:09;;;;;;;7.95;4.53;;;;;;;;;;2080723;28;20021;-74
2023/12/16 01:14:28;;;;;;;5.18;4.10;;;;;;;;;;2079654;28;20478;-75
2023/12/16 01:15:47;;;;;;;4.97;4.57;;;;;;;;;;2076845;28;20041;-74
2023/12/16 01:17:06;;;;;;;5.15;4.20;;;;;;;;;;2077818;28;20486;-75
2023/12/16 01:18:25;;;;;;;4.68;4.18;;;;;;;;;;2079746;28;20478;-74
2023/12/16 01:19:44;;;;;;;4.97;3.72;;;;;;;;;;2079914;28;20038;-74
2023/12/16 01:21:04;;;;;;;4.20;3.80;;;;;;;;;;2079544;28;20041;-74
2023/12/16 01:22:24;;;;;;;4.60;3.53;;;;;;;;;;2069078;28;20033;-74
2023/12/16 01:23:43;;;;;;;10.48;4.22;;;;;;;;;;2070027;28;20037;-75
2023/12/16 01:25:02;;;;;;;4.90;3.63;;;;;;;;;;2078197;28;20394;-73
2023/12/16 01:26:20;;;;;;;6.13;3.47;;;;;;;;;;2081161;28;20065;-74
2023/12/16 01:27:39;;;;;;;5.00;3.47;;;;;;;;;;2073349;28;20033;-74
2023/12/16 01:28:58;;;;;;;6.35;3.67;;;;;;;;;;2073311;28;20124;-74
2023/12/16 01:30:17;;;;;;;7.80;4.65;;;;;;;;;;2078071;28;20022;-75
2023/12/16 01:31:36;;;;;;;5.85;3.90;;;;;;;;;;2079413;28;20046;-74
2023/12/16 01:32:55;;;;;;;7.05;3.75;;;;;;;;;;2080351;28;20018;-75
2023/12/16 01:34:14;;;;;;;7.13;3.92;;;;;;;;;;2079325;28;20029;-75
2023/12/16 01:35:33;;;;;;;4.82;4.22;;;;;;;;;;2079481;28;20021;-75
2023/12/16 01:36:52;;;;;;;5.60;3.80;;;;;;;;;;2074275;28;20071;-74
2023/12/16 01:38:11;;;;;;;4.82;3.55;;;;;;;;;;2077732;28;20034;-74
2023/12/16 01:39:30;;;;;;;5.68;4.13;;;;;;;;;;2080300;28;20034;-75
2023/12/16 01:40:49;;;;;;;5.80;3.40;;;;;;;;;;2080103;28;20029;-74
2023/12/16 01:42:08;;;;;;;5.07;3.75;;;;;;;;;;2080742;28;20116;-75
2023/12/16 01:43:27;;;;;;;4.35;3.35;;;;;;;;;;2080969;28;20041;-74
2023/12/16 01:44:46;;;;;;;3.90;3.30;;;;;;;;;;2080586;28;20026;-75
2023/12/16 01:46:06;;;;;;;3.28;2.97;;;;;;;;;;2079563;28;20038;-74
2023/12/16 01:47:24;;;;;;;5.10;3.55;;;;;;;;;;2082261;28;20025;-75
2023/12/16 01:48:44;;;;;;;6.20;3.65;;;;;;;;;;2082106;28;20479;-75
2023/12/16 01:50:03;;;;;;;5.43;3.67;;;;;;;;;;2082368;28;20030;-76
2023/12/16 01:51:22;;;;;;;5.97;3.78;;;;;;;;;;2082334;28;20029;-74
2023/12/16 01:52:41;;;;;;;6.32;3.47;;;;;;;;;;2082376;28;20029;-75
2023/12/16 01:54:00;;;;;;;7.03;3.72;;;;;;;;;;2080062;28;20025;-74
2023/12/16 01:55:20;;;;;;;5.43;3.65;;;;;;;;;;2082761;28;20037;-75
2023/12/16 01:56:39;;;;;;;6.82;3.45;;;;;;;;;;2080541;28;20026;-74
2023/12/16 01:57:58;;;;;;;7.30;3.95;;;;;;;;;;2083207;28;20040;-75
2023/12/16 01:59:17;;;;;;;8.07;3.67;;;;;;;;;;2076965;28;20399;-75
2023/12/16 02:00:36;;;;;;;5.90;3.60;;;;;;;;;;2080992;28;20025;-74
2023/12/16 02:01:55;;;;;;;3.75;3.38;;;;;;;;;;2080949;28;20188;-75
2023/12/16 02:03:15;;;;;;;6.28;3.28;;;;;;;;;;2081497;28;20394;-74
2023/12/16 02:04:34;;;;;;;6.28;3.47;;;;;;;;;;2081782;28;20064;-76
2023/12/16 02:05:53;;;;;;;5.20;4.00;;;;;;;;;;2082659;28;20033;-75
2023/12/16 02:07:12;;;;;;;5.18;3.75;;;;;;;;;;2081685;28;20037;-75
2023/12/16 02:08:31;;;;;;;7.30;3.70;;;;;;;;;;2081837;28;20033;-75
2023/12/16 02:09:50;;;;;;;6.43;3.63;;;;;;;;;;2081902;28;20479;-74
2023/12/16 02:11:10;;;;;;;10.07;3.90;;;;;;;;;;2075650;28;20109;-74
2023/12/16 02:12:31;;;;;;;8.75;3.90;;;;;;;;;;2078845;28;20025;-74
2023/12/16 02:13:51;;;;;;;5.53;3.75;;;;;;;;;;2080819;28;20048;-74
2023/12/16 02:15:10;;;;;;;8.73;4.00;;;;;;;;;;2074258;28;20061;-74
2023/12/16 02:16:29;;;;;;;6.82;3.45;;;;;;;;;;2079311;28;20021;-74
2023/12/16 02:17:48;;;;;;;8.43;4.00;;;;;;;;;;2082216;28;20037;-75
2023/12/16 02:19:10;;;;;;;10.32;3.75;;;;;;;;;;2076029;28;20469;-74
2023/12/16 02:20:29;;;;;;;8.40;4.40;;;;;;;;;;2078331;28;20057;-74
2023/12/16 02:21:48;;;;;;;9.55;4.32;;;;;;;;;;2081734;28;20044;-74
2023/12/16 02:23:17;;;;;;;9.25;4.18;;;;;;;;;;2081077;28;20021;-74
2023/12/16 02:24:38;;;;;;;6.13;4.13;;;;;;;;;;2080360;28;20037;-74
2023/12/16 02:25:56;;;;;;;8.45;4.00;;;;;;;;;;2080259;28;20037;-75
2023/12/16 02:27:15;;;;;;;6.50;4.00;;;;;;;;;;2069667;28;20034;-75
2023/12/16 02:28:35;;;;;;;8.45;3.88;;;;;;;;;;2070986;28;20037;-74
2023/12/16 02:29:54;;;;;;;8.07;3.88;;;;;;;;;;2079022;28;20018;-75
2023/12/16 02:31:13;;;;;;;5.97;3.70;;;;;;;;;;2080110;28;20029;-74
2023/12/16 02:32:32;;;;;;;7.88;4.00;;;;;;;;;;2075132;28;20026;-75
2023/12/16 02:33:50;;;;;;;7.18;3.70;;;;;;;;;;2078168;28;20033;-75
2023/12/16 02:35:09;;;;;;;5.50;3.50;;;;;;;;;;2081917;28;20057;-77
2023/12/16 02:36:28;;;;;;;8.95;3.97;;;;;;;;;;2081519;28;20053;-74
2023/12/16 02:37:47;;;;;;;6.68;3.95;;;;;;;;;;2082059;28;20025;-74
2023/12/16 02:39:06;;;;;;;9.43;3.80;;;;;;;;;;2076555;28;20029;-74
2023/12/16 02:40:25;;;;;;;11.02;3.92;;;;;;;;;;2077761;28;20033;-75
2023/12/16 02:41:44;;;;;;;16.88;4.80;;;;;;;;;;2079617;28;20025;-74
2023/12/16 02:43:03;;;;;;;11.75;4.53;;;;;;;;;;2074445;28;20499;-74
2023/12/16 02:44:22;;;;;;;13.98;4.30;;;;;;;;;;2078778;28;20038;-75
2023/12/16 02:45:41;;;;;;;10.18;3.90;;;;;;;;;;2081731;28;20384;-74
2023/12/16 02:47:00;;;;;;;12.55;4.20;;;;;;;;;;2081959;28;20033;-75
2023/12/16 02:48:19;;;;;;;8.50;4.25;;;;;;;;;;2081044;28;20022;-74
2023/12/16 02:49:38;;;;;;;12.80;3.83;;;;;;;;;;2081183;28;20033;-73
2023/12/16 02:50:57;;;;;;;6.25;4.00;;;;;;;;;;2074679;28;20030;-74
2023/12/16 02:52:16;;;;;;;11.82;4.40;;;;;;;;;;2073062;28;20021;-74
2023/12/16 02:53:35;;;;;;;12.20;3.65;;;;;;;;;;2079944;28;20546;-75
2023/12/16 02:54:54;;;;;;;8.10;4.68;;;;;;;;;;2081720;28;20038;-74
2023/12/16 02:56:13;;;;;;;10.35;3.60;;;;;;;;;;2082243;28;20018;-74
2023/12/16 02:57:32;;;;;;;7.95;4.18;;;;;;;;;;2076421;28;20017;-73
2023/12/16 02:58:51;;;;;;;15.63;4.30;;;;;;;;;;2078885;28;20034;-74
2023/12/16 03:00:10;;;;;;;4.38;3.88;;;;;;;;;;2080905;28;20033;-74
2023/12/16 03:01:29;;;;;;;7.65;4.10;;;;;;;;;;2081685;28;20022;-74
2023/12/16 03:02:48;;;;;;;12.15;3.80;;;;;;;;;;2081179;28;20033;-75
2023/12/16 03:04:07;;;;;;;8.80;4.20;;;;;;;;;;2081752;28;20013;-74
2023/12/16 03:05:26;;;;;;;11.80;4.22;;;;;;;;;;2082180;28;20029;-74
2023/12/16 03:06:45;;;;;;;9.20;4.50;;;;;;;;;;2080510;28;20488;-77
2023/12/16 03:08:04;;;;;;;12.68;4.43;;;;;;;;;;2080957;28;20022;-75
2023/12/16 03:09:23;;;;;;;6.88;3.97;;;;;;;;;;2081524;28;20021;-74
2023/12/16 03:10:43;;;;;;;10.02;4.90;;;;;;;;;;2075756;28;20025;-74
2023/12/16 03:12:04;;;;;;;13.20;4.20;;;;;;;;;;2070889;28;20026;-74
2023/12/16 03:13:22;;;;;;;6.32;4.30;;;;;;;;;;2078231;28;20057;-74
2023/12/16 03:14:41;;;;;;;8.85;4.65;;;;;;;;;;2074075;28;20026;-74
2023/12/16 03:16:01;;;;;;;14.23;4.38;;;;;;;;;;2078647;28;20487;-74
2023/12/16 03:17:20;;;;;;;9.57;4.32;;;;;;;;;;2081261;28;20475;-75
2023/12/16 03:18:39;;;;;;;13.85;4.35;;;;;;;;;;2080973;28;20037;-74
2023/12/16 03:19:58;;;;;;;8.50;4.88;;;;;;;;;;2081274;28;20030;-74
2023/12/16 03:21:17;;;;;;;14.18;4.70;;;;;;;;;;2082187;28;20021;-74
2023/12/16 03:22:36;;;;;;;13.68;4.40;;;;;;;;;;2081751;28;20026;-74
2023/12/16 03:23:55;;;;;;;9.45;4.18;;;;;;;;;;2072473;28;20025;-75
2023/12/16 03:25:14;;;;;;;7.40;4.22;;;;;;;;;;2076271;28;20021;-74
2023/12/16 03:26:33;;;;;;;11.95;4.93;;;;;;;;;;2073589;28;20034;-75
2023/12/16 03:27:52;;;;;;;9.45;4.07;;;;;;;;;;2079469;28;20021;-74
2023/12/16 03:29:11;;;;;;;8.63;4.72;;;;;;;;;;2081322;28;20120;-74
2023/12/16 03:30:30;;;;;;;11.27;3.83;;;;;;;;;;2081268;28;20021;-74
2023/12/16 03:31:49;;;;;;;12.50;4.47;;;;;;;;;;2079935;28;20022;-74
2023/12/16 03:33:08;;;;;;;13.05;4.50;;;;;;;;;;2075495;28;20495;-74
2023/12/16 03:34:30;;;;;;;13.65;4.43;;;;;;;;;;2078897;28;20029;-74
2023/12/16 03:35:48;;;;;;;11.88;4.13;;;;;;;;;;2080958;28;20022;-74
2023/12/16 03:37:07;;;;;;;13.32;5.07;;;;;;;;;;2080812;28;20055;-75
2023/12/16 03:38:26;;;;;;;11.85;4.75;;;;;;;;;;2076650;28;20041;-74
2023/12/16 03:39:45;;;;;;;12.43;4.88;;;;;;;;;;2078434;28;20022;-75
2023/12/16 03:41:05;;;;;;;16.42;5.32;;;;;;;;;;2080400;28;20033;-75
2023/12/16 03:42:24;;;;;;;7.22;4.43;;;;;;;;;;2080441;28;20033;-75
2023/12/16 03:43:43;;;;;;;12.10;4.80;;;;;;;;;;2080974;28;20037;-74
2023/12/16 03:45:03;;;;;;;12.50;5.00;;;;;;;;;;2081590;28;20068;-76
2023/12/16 03:46:22;;;;;;;17.60;5.30;;;;;;;;;;2075638;28;20022;-75
2023/12/16 03:47:40;;;;;;;10.80;4.32;;;;;;;;;;2076353;28;20026;-74
2023/12/16 03:48:59;;;;;;;11.50;4.88;;;;;;;;;;2079399;28;20053;-74
2023/12/16 03:50:18;;;;;;;8.88;5.38;;;;;;;;;;2080729;28;20034;-75
2023/12/16 03:51:38;;;;;;;14.65;5.00;;;;;;;;;;2081021;28;20144;-76
2023/12/16 03:52:57;;;;;;;13.65;5.40;;;;;;;;;;2076463;28;20075;-76
2023/12/16 03:54:16;;;;;;;13.38;4.95;;;;;;;;;;2079479;28;20058;-75
2023/12/16 03:55:34;;;;;;;8.43;4.38;;;;;;;;;;2080407;28;20026;-73
2023/12/16 03:56:53;;;;;;;9.98;4.65;;;;;;;;;;2080180;28;20033;-74
2023/12/16 03:58:12;;;;;;;11.88;5.00;;;;;;;;;;2081676;28;20042;-74
2023/12/16 03:59:31;;;;;;;10.23;4.25;;;;;;;;;;2079601;28;20061;-75
2023/12/16 04:00:50;;;;;;;8.52;4.55;;;;;;;;;;2080902;28;20048;-75
2023/12/16 04:02:09;;;;;;;12.43;3.90;;;;;;;;;;2080253;28;20033;-74
2023/12/16 04:03:28;;;;;;;9.15;4.22;;;;;;;;;;2081494;28;20052;-75
2023/12/16 04:04:47;;;;;;;11.30;4.22;;;;;;;;;;2074636;28;20033;-74
2023/12/16 04:06:15;;;;;;;13.10;4.10;;;;;;;;;;2078144;28;20038;-74
2023/12/16 04:07:34;;;;;;;10.05;3.75;;;;;;;;;;2081232;28;20021;-75
2023/12/16 04:08:53;;;;;;;13.80;4.00;;;;;;;;;;2075978;28;20021;-75
2023/12/16 04:10:12;;;;;;;9.23;3.88;;;;;;;;;;2071621;28;20030;-74
2023/12/16 04:11:31;;;;;;;15.35;4.05;;;;;;;;;;2078384;28;20379;-74
2023/12/16 04:12:50;;;;;;;10.55;3.60;;;;;;;;;;2081390;28;20455;-74
2023/12/16 04:14:09;;;;;;;9.68;3.40;;;;;;;;;;2081745;28;20034;-74
2023/12/16 04:15:28;;;;;;;12.35;3.80;;;;;;;;;;2075173;28;20038;-74
2023/12/16 04:16:48;;;;;;;15.25;4.95;;;;;;;;;;2075997;28;20108;-74
2023/12/16 04:18:07;;;;;;;8.48;3.15;;;;;;;;;;2079748;28;20041;-74
2023/12/16 04:19:25;;;;;;;13.52;3.97;;;;;;;;;;2080499;28;20060;-75
2023/12/16 04:20:44;;;;;;;9.13;3.80;;;;;;;;;;2075142;28;20034;-76
2023/12/16 04:22:04;;;;;;;11.18;3.65;;;;;;;;;;2078652;28;20033;-73
2023/12/16 04:23:23;;;;;;;10.52;3.80;;;;;;;;;;2081369;28;20104;-74
2023/12/16 04:24:43;;;;;;;8.32;3.28;;;;;;;;;;2082396;28;20603;-74
2023/12/16 04:26:02;;;;;;;12.77;3.60;;;;;;;;;;2073856;28;20034;-73
2023/12/16 04:27:21;;;;;;;13.82;3.85;;;;;;;;;;2080354;28;20037;-74
2023/12/16 04:28:40;;;;;;;13.15;4.53;;;;;;;;;;2074543;28;20042;-74
2023/12/16 04:29:59;;;;;;;12.05;4.22;;;;;;;;;;2077812;28;20135;-75
2023/12/16 04:31:19;;;;;;;22.00;4.20;;;;;;;;;;2088675;28;20033;-77
2023/12/16 04:32:38;;;;;;;11.73;4.13;;;;;;;;;;2089471;28;20029;-77
2023/12/16 04:33:57;;;;;;;12.68;4.18;;;;;;;;;;2089333;28;20061;-78
2023/12/16 04:35:16;;;;;;;13.02;3.90;;;;;;;;;;2084697;28;20046;-76
2023/12/16 04:36:36;;;;;;;13.77;4.00;;;;;;;;;;2085301;28;20029;-75
2023/12/16 04:37:55;;;;;;;10.82;3.50;;;;;;;;;;2086606;28;20041;-75
2023/12/16 04:39:14;;;;;;;11.98;4.40;;;;;;;;;;2082744;28;20463;-74
2023/12/16 04:40:33;;;;;;;13.73;4.13;;;;;;;;;;2082639;28;20025;-75
2023/12/16 04:41:52;;;;;;;12.95;3.78;;;;;;;;;;2084423;28;20037;-74
2023/12/16 04:43:11;;;;;;;9.70;4.07;;;;;;;;;;2085340;28;20026;-74
2023/12/16 04:44:30;;;;;;;13.55;3.67;;;;;;;;;;2084932;28;20022;-75
2023/12/16 04:45:49;;;;;;;16.77;4.38;;;;;;;;;;2080183;28;20045;-74
2023/12/16 04:47:08;;;;;;;13.27;3.88;;;;;;;;;;2085774;28;20037;-75
2023/12/16 04:48:27;;;;;;;9.07;4.00;;;;;;;;;;2083094;28;20025;-74
2023/12/16 04:49:46;;;;;;;12.75;3.33;;;;;;;;;;2083065;28;20157;-74
2023/12/16 04:51:06;;;;;;;14.32;3.33;;;;;;;;;;2079465;28;20578;-74
2023/12/16 04:52:25;;;;;;;12.75;3.80;;;;;;;;;;2081130;28;20060;-75
2023/12/16 04:53:44;;;;;;;18.58;5.70;;;;;;;;;;2081907;28;20037;-74
2023/12/16 04:55:03;;;;;;;16.52;4.38;;;;;;;;;;2075327;28;21295;-74
2023/12/16 04:56:22;;;;;;;15.75;4.00;;;;;;;;;;2078077;28;20490;-74
2023/12/16 04:57:41;;;;;;;16.17;4.10;;;;;;;;;;2080694;28;20029;-74
2023/12/16 04:59:00;;;;;;;11.35;3.60;;;;;;;;;;2081049;28;20029;-74
2023/12/16 05:00:19;;;;;;;19.17;4.30;;;;;;;;;;2078595;28;20112;-74
2023/12/16 05:01:38;;;;;;;12.75;3.80;;;;;;;;;;2074698;28;20026;-75
2023/12/16 05:02:58;;;;;;;9.88;3.95;;;;;;;;;;2077216;28;20041;-74
2023/12/16 05:04:17;;;;;;;12.95;3.25;;;;;;;;;;2074263;28;20042;-74
2023/12/16 05:05:35;;;;;;;10.05;3.78;;;;;;;;;;2075916;28;20037;-75
2023/12/16 05:06:54;;;;;;;22.73;4.55;;;;;;;;;;2080755;28;20435;-74
2023/12/16 05:08:14;;;;;;;14.05;3.80;;;;;;;;;;2079906;28;20577;-74
2023/12/16 05:09:33;;;;;;;14.20;3.78;;;;;;;;;;2081213;28;20482;-74
2023/12/16 05:10:52;;;;;;;10.43;3.80;;;;;;;;;;2080448;28;20029;-75
2023/12/16 05:12:11;;;;;;;17.92;4.90;;;;;;;;;;2078270;28;20025;-74
2023/12/16 05:13:30;;;;;;;16.17;3.38;;;;;;;;;;2073987;28;20116;-73
2023/12/16 05:14:49;;;;;;;15.35;4.35;;;;;;;;;;2078517;28;20347;-74
2023/12/16 05:16:08;;;;;;;21.77;4.55;;;;;;;;;;2079958;28;20474;-75
2023/12/16 05:17:27;;;;;;;14.07;4.22;;;;;;;;;;2075376;28;20066;-74
2023/12/16 05:18:46;;;;;;;11.27;3.60;;;;;;;;;;2073083;28;20033;-74
2023/12/16 05:20:06;;;;;;;15.02;3.97;;;;;;;;;;2079070;28;20025;-74
2023/12/16 05:21:25;;;;;;;20.77;4.22;;;;;;;;;;2080245;28;20112;-75
2023/12/16 05:22:44;;;;;;;15.30;3.53;;;;;;;;;;2079190;28;20022;-75
2023/12/16 05:24:03;;;;;;;12.15;3.42;;;;;;;;;;2080978;28;20371;-74
2023/12/16 05:25:22;;;;;;;13.85;4.18;;;;;;;;;;2079954;28;20026;-75
2023/12/16 05:26:41;;;;;;;19.73;4.10;;;;;;;;;;2080663;28;20029;-75
2023/12/16 05:28:00;;;;;;;13.93;3.55;;;;;;;;;;2080643;28;20025;-75
2023/12/16 05:29:19;;;;;;;16.55;3.50;;;;;;;;;;2079900;28;20038;-74
2023/12/16 05:30:38;;;;;;;12.23;4.30;;;;;;;;;;2080547;28;20048;-75
2023/12/16 05:31:57;;;;;;;15.45;3.33;;;;;;;;;;2076215;28;20018;-75
2023/12/16 05:33:16;;;;;;;14.77;2.78;;;;;;;;;;2079800;28;20021;-74
2023/12/16 05:34:35;;;;;;;15.07;4.22;;;;;;;;;;2073711;28;20030;-75
2023/12/16 05:35:54;;;;;;;18.50;4.05;;;;;;;;;;2076809;28;20029;-74
2023/12/16 05:37:13;;;;;;;11.48;3.75;;;;;;;;;;2078099;28;20021;-75
2023/12/16 05:38:32;;;;;;;19.58;4.63;;;;;;;;;;2075315;28;20029;-74
2023/12/16 05:39:51;;;;;;;12.80;3.75;;;;;;;;;;2076555;28;20029;-75
2023/12/16 05:41:12;;;;;;;15.50;3.80;;;;;;;;;;2078817;28;20065;-74
2023/12/16 05:42:30;;;;;;;18.63;4.03;;;;;;;;;;2080137;28;20061;-74
2023/12/16 05:43:49;;;;;;;8.88;4.20;;;;;;;;;;2080211;28;20839;-74
2023/12/16 05:45:08;;;;;;;15.10;3.72;;;;;;;;;;2081054;28;20049;-74
2023/12/16 05:46:28;;;;;;;19.30;4.88;;;;;;;;;;2079715;28;20025;-75
2023/12/16 05:47:47;;;;;;;14.05;3.90;;;;;;;;;;2072987;28;20038;-74
2023/12/16 05:49:05;;;;;;;25.98;4.60;;;;;;;;;;2077454;28;20065;-75
2023/12/16 05:50:24;;;;;;;11.77;3.92;;;;;;;;;;2080365;28;20022;-75
2023/12/16 05:51:43;;;;;;;16.90;4.20;;;;;;;;;;2080081;28;20029;-74
2023/12/16 05:53:02;;;;;;;18.67;4.00;;;;;;;;;;2078743;28;20491;-75
2023/12/16 05:54:23;;;;;;;19.67;4.35;;;;;;;;;;2074571;28;20041;-74
2023/12/16 05:55:45;;;;;;;15.98;4.30;;;;;;;;;;2077646;28;20037;-74
2023/12/16 05:57:04;;;;;;;16.05;3.92;;;;;;;;;;2073946;28;20391;-74
2023/12/16 05:58:23;;;;;;;22.35;3.90;;;;;;;;;;2078523;28;20045;-74
2023/12/16 05:59:43;;;;;;;18.90;4.60;;;;;;;;;;2079353;28;20395;-74
2023/12/16 06:01:03;;;;;;;18.35;4.43;;;;;;;;;;2080022;28;20029;-74
2023/12/16 06:02:22;;;;;;;19.42;4.90;;;;;;;;;;2081145;28;20025;-74
2023/12/16 06:03:41;;;;;;;16.05;4.55;;;;;;;;;;2080198;28;20029;-73
2023/12/16 06:05:00;;;;;;;18.33;3.92;;;;;;;;;;2080779;28;20398;-74
2023/12/16 06:06:20;;;;;;;19.35;4.60;;;;;;;;;;2073134;28;20511;-76
2023/12/16 06:07:39;;;;;;;19.63;3.47;;;;;;;;;;2078650;28;20495;-74
2023/12/16 06:08:58;;;;;;;10.00;3.95;;;;;;;;;;2078308;28;20034;-75
2023/12/16 06:10:17;;;;;;;13.98;3.25;;;;;;;;;;2074857;28;20026;-74
2023/12/16 06:11:36;;;;;;;17.23;3.78;;;;;;;;;;2077801;28;20026;-74
2023/12/16 06:12:55;;;;;;;22.40;4.53;;;;;;;;;;2080699;28;20033;-74
2023/12/16 06:14:13;;;;;;;21.85;4.05;;;;;;;;;;2074773;28;20113;-74
2023/12/16 06:15:33;;;;;;;22.52;4.72;;;;;;;;;;2076407;28;20069;-74
2023/12/16 06:16:52;;;;;;;22.35;4.93;;;;;;;;;;2079461;28;20034;-74
2023/12/16 06:18:11;;;;;;;18.38;3.97;;;;;;;;;;2080131;28;20026;-75
2023/12/16 06:19:30;;;;;;;18.85;4.68;;;;;;;;;;2080790;28;20495;-75
2023/12/16 06:20:49;;;;;;;20.58;4.68;;;;;;;;;;2080437;28;20106;-75
2023/12/16 06:22:08;;;;;;;24.77;4.38;;;;;;;;;;2078551;28;20435;-74
2023/12/16 06:23:28;;;;;;;18.98;3.28;;;;;;;;;;2079341;28;20045;-74
2023/12/16 06:24:47;;;;;;;17.00;3.88;;;;;;;;;;2074775;28;20041;-75
2023/12/16 06:26:05;;;;;;;17.48;3.00;;;;;;;;;;2079282;28;20034;-75
2023/12/16 06:27:24;;;;;;;13.63;3.50;;;;;;;;;;2073515;28;20065;-74
2023/12/16 06:28:43;;;;;;;14.13;3.75;;;;;;;;;;2077632;28;20041;-74
2023/12/16 06:30:02;;;;;;;28.73;4.82;;;;;;;;;;2081331;28;20101;-75
2023/12/16 06:31:21;;;;;;;24.90;4.25;;;;;;;;;;2081440;28;20026;-74
2023/12/16 06:32:40;;;;;;;18.38;3.80;;;;;;;;;;2076043;28;20025;-74
2023/12/16 06:33:59;;;;;;;25.60;4.15;;;;;;;;;;2078869;28;20473;-74
2023/12/16 06:35:18;;;;;;;25.45;5.03;;;;;;;;;;2081175;28;20060;-75
2023/12/16 06:36:37;;;;;;;23.33;4.28;;;;;;;;;;2080881;28;20026;-75
2023/12/16 06:37:56;;;;;;;19.63;4.13;;;;;;;;;;2081363;28;20116;-75
2023/12/16 06:39:15;;;;;;;18.00;3.58;;;;;;;;;;2075726;28;20507;-75
2023/12/16 06:40:34;;;;;;;28.27;4.55;;;;;;;;;;2071057;28;20128;-75
2023/12/16 06:41:53;;;;;;;23.95;4.47;;;;;;;;;;2080470;28;20491;-76
2023/12/16 06:43:12;;;;;;;19.92;4.50;;;;;;;;;;2082231;28;20052;-76
2023/12/16 06:44:31;;;;;;;30.20;4.78;;;;;;;;;;2077734;28;20033;-75
2023/12/16 06:45:50;;;;;;;17.13;4.57;;;;;;;;;;2078102;28;20465;-75
2023/12/16 06:47:09;;;;;;;22.15;4.70;;;;;;;;;;2080943;28;20034;-75
2023/12/16 06:48:28;;;;;;;22.10;4.15;;;;;;;;;;2081192;28;20037;-73
2023/12/16 06:49:47;;;;;;;17.55;3.63;;;;;;;;;;2081647;28;20549;-75
2023/12/16 06:51:06;;;;;;;19.88;4.70;;;;;;;;;;2081105;28;20029;-74
2023/12/16 06:52:25;;;;;;;25.27;4.30;;;;;;;;;;2082722;28;20025;-75
2023/12/16 06:53:44;;;;;;;19.77;4.20;;;;;;;;;;2075286;28;20038;-75
2023/12/16 06:55:02;;;;;;;21.75;4.53;;;;;;;;;;2078258;28;20390;-76
2023/12/16 06:56:21;;;;;;;20.50;4.75;;;;;;;;;;2082081;28;20025;-75
2023/12/16 06:57:41;;;;;;;24.40;4.05;;;;;;;;;;2077583;28;20495;-74
2023/12/16 06:59:00;;;;;;;28.00;4.07;;;;;;;;;;2080319;28;20025;-75
2023/12/16 07:00:19;;;;;;;21.27;4.35;;;;;;;;;;2081825;28;20022;-75
2023/12/16 07:01:37;;;;;;;22.42;5.03;;;;;;;;;;2080317;28;20026;-76
2023/12/16 07:02:57;;;;;;;23.85;4.45;;;;;;;;;;2080545;28;20041;-76
2023/12/16 07:04:16;;;;;;;19.67;3.92;;;;;;;;;;2081736;28;20034;-75
2023/12/16 07:05:35;;;;;;;17.80;3.80;;;;;;;;;;2082151;28;20053;-76
2023/12/16 07:06:54;;;;;;;23.73;4.55;;;;;;;;;;2076589;28;20029;-75
2023/12/16 07:08:13;;;;;;;22.70;3.75;;;;;;;;;;2080504;28;20037;-75
2023/12/16 07:09:32;;;;;;;19.45;4.00;;;;;;;;;;2081221;28;20037;-76
2023/12/16 07:10:51;;;;;;;16.80;3.22;;;;;;;;;;2082216;28;20025;-74
2023/12/16 07:12:10;;;;;;;17.80;3.33;;;;;;;;;;2080174;28;20025;-74
2023/12/16 07:13:29;;;;;;;18.40;4.10;;;;;;;;;;2081681;28;20029;-74
2023/12/16 07:14:47;;;;;;;24.80;3.60;;;;;;;;;;2080135;28;20053;-74
2023/12/16 07:16:07;;;;;;;19.40;4.03;;;;;;;;;;2082331;28;20029;-75
2023/12/16 07:17:26;;;;;;;18.77;3.17;;;;;;;;;;2076080;28;20034;-75
2023/12/16 07:18:45;;;;;;;22.52;4.22;;;;;;;;;;2077670;28;20406;-75
2023/12/16 07:20:04;;;;;;;24.73;3.85;;;;;;;;;;2072626;28;20112;-75
2023/12/16 07:21:23;;;;;;;21.45;3.35;;;;;;;;;;2079084;28;20037;-75
2023/12/16 07:22:43;;;;;;;18.95;3.97;;;;;;;;;;2081402;28;20033;-75
2023/12/16 07:24:02;;;;;;;24.33;4.45;;;;;;;;;;2076796;28;20428;-75
2023/12/16 07:25:21;;;;;;;26.95;3.55;;;;;;;;;;2072482;28;20848;-75
2023/12/16 07:26:40;;;;;;;23.88;4.55;;;;;;;;;;2078236;28;20056;-75
2023/12/16 07:27:59;;;;;;;23.33;4.25;;;;;;;;;;2075047;28;20692;-75
2023/12/16 07:29:18;;;;;;;17.05;3.80;;;;;;;;;;2080182;28;20038;-74
2023/12/16 07:30:37;;;;;;;19.60;4.10;;;;;;;;;;2074104;28;20022;-74
2023/12/16 07:31:56;;;;;;;18.58;3.53;;;;;;;;;;2079232;28;20041;-74
2023/12/16 07:33:15;;;;;;;29.95;4.93;;;;;;;;;;2076500;28;20123;-75
2023/12/16 07:34:34;;;;;;;22.48;3.45;;;;;;;;;;2077641;28;20026;-74
2023/12/16 07:35:53;;;;;;;24.08;3.95;;;;;;;;;;2077622;28;20021;-75
2023/12/16 07:37:12;;;;;;;21.85;3.78;;;;;;;;;;2080683;28;20029;-75
2023/12/16 07:38:31;;;;;;;21.85;4.20;;;;;;;;;;2081108;28;20029;-74
2023/12/16 07:39:50;;;;;;;25.63;4.25;;;;;;;;;;2081987;28;20029;-74
2023/12/16 07:41:09;;;;;;;23.65;3.60;;;;;;;;;;2081546;28;20029;-76
2023/12/16 07:42:28;;;;;;;21.70;4.15;;;;;;;;;;2081958;28;20060;-74
2023/12/16 07:43:47;;;;;;;25.15;3.95;;;;;;;;;;2075837;28;20034;-76
2023/12/16 07:45:06;;;;;;;30.55;4.00;;;;;;;;;;2074537;28;20021;-76
2023/12/16 07:46:26;;;;;;;24.02;3.92;;;;;;;;;;2079191;28;20033;-76
2023/12/16 07:47:45;;;;;;;26.85;4.20;;;;;;;;;;2081904;28;20029;-76
2023/12/16 07:49:04;;;;;;;24.08;3.75;;;;;;;;;;2081289;28;20510;-75
2023/12/16 07:50:23;;;;;;;28.38;4.55;;;;;;;;;;2075925;28;20033;-76